Time;durP1;ratioP1;P1;durP2;ratioP2;P2;SDS_P1;SDS_P2;PMS_P1;PMS_P2;Temp;Humidity;BMP_temperature;BMP_pressure;BME280_temperature;BME280_humidity;BME280_pressure;Samples;Min_cycle;Max_cycle;Signal;HPM_P1;HPM_P2
2021/09/02 00:02:15;;;;;;;18.13;11.48;;;16.40;99.90;;;;;;4952626;29;20019;-71
2021/09/02 00:04:40;;;;;;;18.02;10.93;;;16.30;99.90;;;;;;4954474;28;20370;-71
2021/09/02 00:07:06;;;;;;;19.33;11.98;;;16.30;99.90;;;;;;4953816;28;20478;-71
2021/09/02 00:09:31;;;;;;;19.85;11.43;;;16.30;99.90;;;;;;4952089;28;20114;-71
2021/09/02 00:11:57;;;;;;;20.70;11.63;;;16.30;99.90;;;;;;4952299;28;20038;-70
2021/09/02 00:14:23;;;;;;;18.52;12.00;;;16.30;99.90;;;;;;4954302;28;20031;-71
2021/09/02 00:16:49;;;;;;;19.23;12.10;;;16.30;99.90;;;;;;4953832;29;20385;-70
2021/09/02 00:19:14;;;;;;;21.77;12.48;;;16.30;99.90;;;;;;4951883;28;20504;-70
2021/09/02 00:21:40;;;;;;;19.65;12.35;;;16.30;99.90;;;;;;4953696;29;20539;-70
2021/09/02 00:24:06;;;;;;;20.38;10.95;;;16.30;99.90;;;;;;4954270;28;20028;-70
2021/09/02 00:26:31;;;;;;;19.90;11.30;;;16.30;99.90;;;;;;4953288;28;20050;-70
2021/09/02 00:28:57;;;;;;;19.25;11.48;;;16.30;99.90;;;;;;4952429;29;20452;-70
2021/09/02 00:31:22;;;;;;;19.33;12.02;;;16.30;99.90;;;;;;4952418;28;20043;-71
2021/09/02 00:33:49;;;;;;;16.98;12.38;;;16.20;99.90;;;;;;4952928;29;20140;-71
2021/09/02 00:36:15;;;;;;;19.50;12.57;;;16.30;99.90;;;;;;4953619;29;20133;-71
2021/09/02 00:38:40;;;;;;;22.65;12.02;;;16.30;99.90;;;;;;4953613;28;20055;-70
2021/09/02 00:41:06;;;;;;;21.58;12.30;;;16.20;99.90;;;;;;4951837;28;20078;-71
2021/09/02 00:43:39;;;;;;;20.02;12.15;;;16.20;99.90;;;;;;4954497;28;20042;-70
2021/09/02 00:46:06;;;;;;;18.33;11.18;;;16.20;99.90;;;;;;4951197;28;20093;-71
2021/09/02 00:48:33;;;;;;;17.25;10.60;;;16.20;99.90;;;;;;4948787;28;20501;-71
2021/09/02 00:50:58;;;;;;;20.73;11.85;;;16.20;99.90;;;;;;4952431;28;20486;-70
2021/09/02 00:53:24;;;;;;;19.10;13.02;;;16.20;99.90;;;;;;4953307;29;20098;-71
2021/09/02 00:55:49;;;;;;;19.83;12.98;;;16.10;99.90;;;;;;4953451;28;20087;-71
2021/09/02 00:58:18;;;;;;;19.52;11.65;;;16.10;99.90;;;;;;4952230;28;20041;-71
2021/09/02 01:00:44;;;;;;;24.90;14.35;;;16.10;99.90;;;;;;4950385;28;20498;-71
2021/09/02 01:03:09;;;;;;;18.88;11.93;;;16.10;99.90;;;;;;4952148;28;20042;-70
2021/09/02 01:05:35;;;;;;;25.65;12.82;;;16.10;99.90;;;;;;4953179;28;20034;-70
2021/09/02 01:08:03;;;;;;;21.92;13.43;;;16.10;99.90;;;;;;4952444;28;20106;-70
2021/09/02 01:10:29;;;;;;;20.92;12.65;;;16.10;99.90;;;;;;4950964;28;20130;-70
2021/09/02 01:12:54;;;;;;;21.73;13.52;;;16.10;99.90;;;;;;4964292;28;20106;-70
2021/09/02 01:15:22;;;;;;;20.83;12.73;;;16.10;99.90;;;;;;4943762;29;20106;-70
2021/09/02 01:17:50;;;;;;;21.88;12.75;;;16.10;99.90;;;;;;4953106;29;20038;-70
2021/09/02 01:20:19;;;;;;;22.13;14.35;;;16.10;99.90;;;;;;4952726;29;20027;-71
2021/09/02 01:22:46;;;;;;;23.27;14.80;;;16.10;99.90;;;;;;4951344;29;20460;-71
2021/09/02 01:25:14;;;;;;;20.33;13.57;;;16.10;99.90;;;;;;4950010;28;20078;-71
2021/09/02 01:27:41;;;;;;;20.35;13.05;;;16.10;99.90;;;;;;4950911;29;20082;-71
2021/09/02 01:30:11;;;;;;;28.30;14.20;;;16.10;99.90;;;;;;4950139;28;20122;-69
2021/09/02 01:32:38;;;;;;;22.15;13.57;;;16.10;99.90;;;;;;4949840;28;20077;-69
2021/09/02 01:35:07;;;;;;;22.90;14.55;;;16.10;99.90;;;;;;4952603;29;20598;-69
2021/09/02 01:37:51;;;;;;;22.60;13.60;;;16.10;99.90;;;;;;4950170;28;20023;-69
2021/09/02 01:40:17;;;;;;;23.98;14.27;;;16.10;99.90;;;;;;4946598;29;20034;-69
2021/09/02 01:42:43;;;;;;;21.42;13.52;;;16.10;99.90;;;;;;4952550;29;20477;-69
2021/09/02 01:45:09;;;;;;;22.58;12.98;;;16.10;99.90;;;;;;4951186;28;20385;-69
2021/09/02 01:47:35;;;;;;;22.10;14.02;;;16.10;99.90;;;;;;4952954;29;20474;-69
2021/09/02 01:50:10;;;;;;;21.92;13.18;;;16.10;99.90;;;;;;4953422;29;20035;-69
2021/09/02 01:52:37;;;;;;;23.75;13.60;;;16.00;99.90;;;;;;4948510;29;20035;-69
2021/09/02 01:55:05;;;;;;;24.63;13.70;;;16.00;99.90;;;;;;4950661;28;20034;-69
2021/09/02 01:57:31;;;;;;;18.13;12.43;;;16.00;99.90;;;;;;4951316;28;20019;-69
2021/09/02 01:59:57;;;;;;;19.50;12.02;;;16.00;99.90;;;;;;4950134;28;20043;-70
2021/09/02 02:02:22;;;;;;;27.10;14.60;;;15.90;99.90;;;;;;4951644;28;20031;-69
2021/09/02 02:04:48;;;;;;;19.20;13.32;;;15.90;99.90;;;;;;4953548;28;20490;-69
2021/09/02 02:07:13;;;;;;;23.55;13.07;;;15.90;99.90;;;;;;4950117;28;20027;-69
2021/09/02 02:09:39;;;;;;;19.33;12.38;;;15.80;99.90;;;;;;4950498;29;20039;-69
2021/09/02 02:12:06;;;;;;;23.20;13.40;;;15.80;99.90;;;;;;4950822;28;20031;-69
2021/09/02 02:14:31;;;;;;;19.75;12.52;;;15.80;99.90;;;;;;4951457;28;20035;-69
2021/09/02 02:16:57;;;;;;;18.58;11.90;;;15.90;99.90;;;;;;4951903;29;20248;-69
2021/09/02 02:19:22;;;;;;;19.02;12.30;;;15.80;99.90;;;;;;4950553;28;20031;-69
2021/09/02 02:21:48;;;;;;;22.40;13.45;;;15.80;99.90;;;;;;4953354;28;20035;-69
2021/09/02 02:24:13;;;;;;;23.23;13.52;;;15.80;99.90;;;;;;4956456;28;20054;-69
2021/09/02 02:26:39;;;;;;;22.80;14.38;;;15.80;99.90;;;;;;4955742;28;20046;-69
2021/09/02 02:29:05;;;;;;;26.98;13.48;;;15.80;99.90;;;;;;4953621;28;20042;-68
2021/09/02 02:31:30;;;;;;;23.02;13.95;;;15.70;99.90;;;;;;4953669;28;20023;-69
2021/09/02 02:33:56;;;;;;;22.20;14.18;;;15.60;99.90;;;;;;4954025;28;20358;-69
2021/09/02 02:36:21;;;;;;;23.70;13.88;;;15.60;99.90;;;;;;4955563;28;20053;-69
2021/09/02 02:38:47;;;;;;;21.95;12.80;;;15.60;99.90;;;;;;4955646;29;20141;-69
2021/09/02 02:41:12;;;;;;;22.48;13.27;;;15.60;99.90;;;;;;4954360;29;20050;-68
2021/09/02 02:43:38;;;;;;;20.52;12.98;;;15.60;99.90;;;;;;4956479;28;20039;-69
2021/09/02 02:46:04;;;;;;;20.55;13.07;;;15.60;99.90;;;;;;4955505;28;20031;-70
2021/09/02 02:48:29;;;;;;;19.42;12.90;;;15.50;99.90;;;;;;4952250;28;20055;-69
2021/09/02 02:50:55;;;;;;;23.17;12.10;;;15.50;99.90;;;;;;4954174;29;20071;-69
2021/09/02 02:53:20;;;;;;;17.35;13.15;;;15.50;99.90;;;;;;4951474;28;20456;-69
2021/09/02 02:55:46;;;;;;;20.13;12.82;;;15.50;99.90;;;;;;4953600;28;20455;-68
2021/09/02 02:58:11;;;;;;;19.52;12.20;;;15.40;99.90;;;;;;4953626;28;20035;-69
2021/09/02 03:00:37;;;;;;;23.77;12.93;;;15.40;99.90;;;;;;4953143;29;20054;-69
2021/09/02 03:03:02;;;;;;;20.88;12.02;;;15.40;99.90;;;;;;4954250;28;20066;-69
2021/09/02 03:05:28;;;;;;;24.08;13.40;;;15.40;99.90;;;;;;4953156;28;20118;-71
2021/09/02 03:07:53;;;;;;;21.45;13.07;;;15.40;99.90;;;;;;4954493;28;20067;-69
2021/09/02 03:10:19;;;;;;;26.80;13.40;;;15.40;99.90;;;;;;4955177;28;20443;-69
2021/09/02 03:12:44;;;;;;;23.67;12.85;;;15.40;99.90;;;;;;4950852;29;20090;-69
2021/09/02 03:15:10;;;;;;;21.77;12.75;;;15.40;99.90;;;;;;4954892;29;20050;-69
2021/09/02 03:17:36;;;;;;;23.38;12.23;;;15.40;99.90;;;;;;4954142;28;20362;-69
2021/09/02 03:20:03;;;;;;;19.55;12.02;;;15.40;99.90;;;;;;4954674;28;20038;-69
2021/09/02 03:22:29;;;;;;;22.40;13.50;;;15.40;99.90;;;;;;4954881;28;20031;-69
2021/09/02 03:24:55;;;;;;;21.23;13.27;;;15.40;99.90;;;;;;4954258;28;20024;-69
2021/09/02 03:27:20;;;;;;;21.83;13.65;;;15.40;99.90;;;;;;4951082;28;20106;-69
2021/09/02 03:29:46;;;;;;;22.75;13.18;;;15.40;99.90;;;;;;4952925;29;20127;-69
2021/09/02 03:32:11;;;;;;;20.98;12.50;;;15.40;99.90;;;;;;4951062;28;20019;-69
2021/09/02 03:34:40;;;;;;;19.30;12.90;;;15.40;99.90;;;;;;4954377;28;20541;-69
2021/09/02 03:37:06;;;;;;;16.73;12.10;;;15.40;99.90;;;;;;4954246;28;20046;-69
2021/09/02 03:39:32;;;;;;;21.13;12.63;;;15.40;99.90;;;;;;4952569;29;20031;-69
2021/09/02 03:41:58;;;;;;;20.30;12.10;;;15.40;99.90;;;;;;4954178;29;20027;-69
2021/09/02 03:44:23;;;;;;;23.30;12.80;;;15.40;99.90;;;;;;4953623;28;20042;-69
2021/09/02 03:46:49;;;;;;;20.85;12.35;;;15.40;99.90;;;;;;4952449;29;20036;-69
2021/09/02 03:49:15;;;;;;;18.83;12.32;;;15.40;99.90;;;;;;4952520;28;20114;-69
2021/09/02 03:51:40;;;;;;;23.58;11.88;;;15.40;99.90;;;;;;4954687;28;20078;-69
2021/09/02 03:54:06;;;;;;;22.10;12.45;;;15.30;99.90;;;;;;4953337;28;20033;-69
2021/09/02 03:56:31;;;;;;;19.60;12.18;;;15.40;99.90;;;;;;4951824;28;20114;-69
2021/09/02 03:58:57;;;;;;;19.95;12.70;;;15.40;99.90;;;;;;4949619;29;20102;-69
2021/09/02 04:01:25;;;;;;;24.20;13.07;;;15.40;99.90;;;;;;4954703;28;20043;-69
2021/09/02 04:03:50;;;;;;;22.95;13.20;;;15.40;99.90;;;;;;4952101;28;20111;-69
2021/09/02 04:06:16;;;;;;;21.60;11.35;;;15.40;99.90;;;;;;4954115;28;20110;-71
2021/09/02 04:08:41;;;;;;;19.77;13.13;;;15.40;99.90;;;;;;4952256;28;20106;-71
2021/09/02 04:11:07;;;;;;;25.15;12.70;;;15.50;99.90;;;;;;4953248;28;20066;-71
2021/09/02 04:13:32;;;;;;;20.23;12.15;;;15.50;99.90;;;;;;4953243;28;20037;-71
2021/09/02 04:15:58;;;;;;;18.17;11.80;;;15.50;99.90;;;;;;4951582;28;20058;-71
2021/09/02 04:18:24;;;;;;;22.48;12.13;;;15.50;99.90;;;;;;4951281;28;20045;-71
2021/09/02 04:20:49;;;;;;;21.35;11.57;;;15.50;99.90;;;;;;4953372;28;20027;-71
2021/09/02 04:23:15;;;;;;;18.98;12.50;;;15.50;99.90;;;;;;4950746;28;20031;-71
2021/09/02 04:25:40;;;;;;;18.60;10.98;;;15.40;99.90;;;;;;4948858;28;20572;-71
2021/09/02 04:28:06;;;;;;;19.38;11.77;;;15.50;99.90;;;;;;4957399;28;20031;-71
2021/09/02 04:30:32;;;;;;;24.92;12.63;;;15.40;99.90;;;;;;4962246;28;20031;-71
2021/09/02 04:32:58;;;;;;;16.45;11.43;;;15.50;99.90;;;;;;4953530;28;20529;-71
2021/09/02 04:35:23;;;;;;;22.35;12.70;;;15.50;99.90;;;;;;4953909;28;20059;-71
2021/09/02 04:37:49;;;;;;;22.23;12.07;;;15.50;99.90;;;;;;4954726;28;20067;-71
2021/09/02 04:40:16;;;;;;;19.58;11.52;;;15.50;99.90;;;;;;4954428;28;20385;-71
2021/09/02 04:42:41;;;;;;;19.23;11.50;;;15.40;99.90;;;;;;4953312;28;20042;-71
2021/09/02 04:45:08;;;;;;;19.52;12.18;;;15.50;99.90;;;;;;4954011;28;20027;-71
2021/09/02 04:47:34;;;;;;;18.50;11.48;;;15.50;99.90;;;;;;4953160;28;20038;-71
2021/09/02 04:49:59;;;;;;;23.20;12.23;;;15.50;99.90;;;;;;4957548;28;20028;-71
2021/09/02 04:52:25;;;;;;;24.10;13.98;;;15.50;99.90;;;;;;4952811;29;20105;-71
2021/09/02 04:54:52;;;;;;;23.20;13.07;;;15.50;99.90;;;;;;4952230;28;20026;-71
2021/09/02 04:57:19;;;;;;;22.60;13.35;;;15.50;99.90;;;;;;4953754;28;20094;-71
2021/09/02 04:59:46;;;;;;;19.10;12.73;;;15.50;99.90;;;;;;4944358;28;20055;-70
2021/09/02 05:02:12;;;;;;;22.23;12.18;;;15.50;99.90;;;;;;4946493;28;20034;-70
2021/09/02 05:04:37;;;;;;;24.55;14.00;;;15.50;99.90;;;;;;4954313;28;20102;-70
2021/09/02 05:07:04;;;;;;;22.00;12.80;;;15.50;99.90;;;;;;4955771;28;20038;-70
2021/09/02 05:09:29;;;;;;;22.67;12.32;;;15.50;99.90;;;;;;4954100;28;20058;-70
2021/09/02 05:11:58;;;;;;;19.17;12.18;;;15.50;99.90;;;;;;4952859;29;20122;-70
2021/09/02 05:14:24;;;;;;;19.05;11.43;;;15.50;99.90;;;;;;4952822;28;20154;-71
2021/09/02 05:16:49;;;;;;;20.83;12.00;;;15.50;99.90;;;;;;4965183;28;20109;-70
2021/09/02 05:19:15;;;;;;;24.00;12.82;;;15.50;99.90;;;;;;4965463;28;20035;-70
2021/09/02 05:21:40;;;;;;;19.50;11.63;;;15.50;99.90;;;;;;4949007;29;20031;-70
2021/09/02 05:24:06;;;;;;;19.05;12.10;;;15.50;99.90;;;;;;4953582;28;20032;-70
2021/09/02 05:26:32;;;;;;;25.80;13.60;;;15.50;99.90;;;;;;4951679;28;20038;-70
2021/09/02 05:28:57;;;;;;;22.13;13.65;;;15.50;99.90;;;;;;4948699;28;20026;-71
2021/09/02 05:31:23;;;;;;;21.30;12.80;;;15.50;99.90;;;;;;4950889;28;20038;-71
2021/09/02 05:33:49;;;;;;;23.08;13.60;;;15.60;99.90;;;;;;4964652;28;20031;-71
2021/09/02 05:36:15;;;;;;;21.65;13.45;;;15.60;99.90;;;;;;4951154;28;20377;-71
2021/09/02 05:38:40;;;;;;;22.83;12.95;;;15.60;99.90;;;;;;4950556;28;20152;-71
2021/09/02 05:41:06;;;;;;;30.10;14.57;;;15.60;99.90;;;;;;4950914;28;20435;-71
2021/09/02 05:43:32;;;;;;;26.08;13.52;;;15.70;99.90;;;;;;4944425;28;20070;-69
2021/09/02 05:45:58;;;;;;;21.02;12.32;;;15.70;99.90;;;;;;4941109;28;20035;-70
2021/09/02 05:48:24;;;;;;;19.95;11.93;;;15.70;99.90;;;;;;4944117;28;20113;-70
2021/09/02 05:50:52;;;;;;;23.08;13.23;;;15.70;99.90;;;;;;4951560;28;20019;-70
2021/09/02 05:53:18;;;;;;;24.48;14.57;;;15.70;99.90;;;;;;4951868;28;20028;-70
2021/09/02 05:55:43;;;;;;;21.45;13.13;;;15.80;99.90;;;;;;4946178;28;20482;-70
2021/09/02 05:58:09;;;;;;;21.08;13.57;;;15.80;99.90;;;;;;4948209;28;20563;-70
2021/09/02 06:00:34;;;;;;;24.08;14.07;;;15.80;99.90;;;;;;4947477;28;20075;-70
2021/09/02 06:03:00;;;;;;;23.58;14.43;;;15.80;99.90;;;;;;4949628;28;20122;-70
2021/09/02 06:05:26;;;;;;;24.50;13.68;;;15.80;99.90;;;;;;4946663;28;20035;-69
2021/09/02 06:07:52;;;;;;;28.75;13.40;;;15.90;99.90;;;;;;4964994;28;20565;-70
2021/09/02 06:10:17;;;;;;;24.30;13.85;;;15.90;99.90;;;;;;4953153;28;20090;-70
2021/09/02 06:12:43;;;;;;;22.85;14.45;;;16.00;99.90;;;;;;4951962;28;20457;-70
2021/09/02 06:15:10;;;;;;;26.77;15.15;;;16.00;99.90;;;;;;4964653;28;20058;-70
2021/09/02 06:17:36;;;;;;;25.33;14.10;;;16.10;99.90;;;;;;4950975;28;20088;-70
2021/09/02 06:20:02;;;;;;;20.10;12.88;;;16.10;99.90;;;;;;4952637;28;20027;-70
2021/09/02 06:22:28;;;;;;;26.13;12.98;;;16.20;99.90;;;;;;4950981;28;20031;-70
2021/09/02 06:24:54;;;;;;;22.35;13.25;;;16.10;99.90;;;;;;4951603;28;20027;-70
2021/09/02 06:27:19;;;;;;;36.80;17.58;;;16.10;99.90;;;;;;4954854;28;20027;-69
2021/09/02 06:29:45;;;;;;;28.00;14.43;;;16.20;99.90;;;;;;4951248;28;20062;-70
2021/09/02 06:32:10;;;;;;;27.30;13.40;;;16.20;99.90;;;;;;4952830;28;20385;-69
2021/09/02 06:34:36;;;;;;;17.10;11.93;;;16.20;99.90;;;;;;4960971;28;20040;-69
2021/09/02 06:37:01;;;;;;;22.35;11.77;;;16.30;99.90;;;;;;4949565;28;20067;-71
2021/09/02 06:39:27;;;;;;;18.13;11.82;;;16.30;99.90;;;;;;4952032;28;20031;-70
2021/09/02 06:41:52;;;;;;;21.05;11.30;;;16.30;99.90;;;;;;4945838;28;20081;-71
2021/09/02 06:44:18;;;;;;;18.65;9.57;;;16.30;99.90;;;;;;4963053;28;20502;-70
2021/09/02 06:46:43;;;;;;;21.30;11.02;;;16.40;99.90;;;;;;4945664;28;20045;-70
2021/09/02 06:49:09;;;;;;;18.67;10.68;;;16.40;99.90;;;;;;4943678;29;20094;-71
2021/09/02 06:51:37;;;;;;;15.25;9.15;;;16.40;99.90;;;;;;4951803;28;20053;-71
2021/09/02 06:54:03;;;;;;;18.77;10.02;;;16.50;99.90;;;;;;4951102;28;20386;-71
2021/09/02 06:56:28;;;;;;;14.98;9.43;;;16.50;99.90;;;;;;4952622;28;20027;-70
2021/09/02 06:58:54;;;;;;;16.73;9.30;;;16.60;99.90;;;;;;4950547;29;20067;-70
2021/09/02 07:01:19;;;;;;;16.25;8.88;;;16.70;99.90;;;;;;4950309;28;20490;-70
2021/09/02 07:03:45;;;;;;;16.70;8.45;;;16.80;99.90;;;;;;4951632;29;20536;-70
2021/09/02 07:06:11;;;;;;;17.25;8.10;;;16.90;99.90;;;;;;4952160;28;20031;-70
2021/09/02 07:08:37;;;;;;;16.73;8.77;;;17.00;99.70;;;;;;4956103;29;20381;-70
2021/09/02 07:11:04;;;;;;;15.65;8.10;;;17.10;99.30;;;;;;4963621;28;20031;-70
2021/09/02 07:13:30;;;;;;;15.60;7.35;;;17.20;99.20;;;;;;4959375;28;20082;-70
2021/09/02 07:15:56;;;;;;;10.25;6.97;;;17.40;98.90;;;;;;4955909;28;20042;-70
2021/09/02 07:18:21;;;;;;;17.15;8.90;;;17.50;98.60;;;;;;4954140;28;20039;-70
2021/09/02 07:20:47;;;;;;;16.58;8.68;;;17.70;98.20;;;;;;4954373;28;20106;-70
2021/09/02 07:23:12;;;;;;;13.73;8.55;;;17.80;97.80;;;;;;4953014;28;20027;-70
2021/09/02 07:25:38;;;;;;;15.75;7.35;;;18.00;97.60;;;;;;4954613;28;20039;-70
2021/09/02 07:28:04;;;;;;;15.30;7.00;;;18.10;97.30;;;;;;4955273;28;20035;-70
2021/09/02 07:30:30;;;;;;;16.17;7.68;;;18.20;96.60;;;;;;4950672;28;20106;-69
2021/09/02 07:32:55;;;;;;;15.23;8.23;;;18.30;96.70;;;;;;4955429;29;20110;-70
2021/09/02 07:35:21;;;;;;;14.10;7.25;;;18.40;96.80;;;;;;4953409;28;20031;-70
2021/09/02 07:37:46;;;;;;;10.85;5.78;;;18.50;96.00;;;;;;4969057;28;20106;-70
2021/09/02 07:40:12;;;;;;;14.20;5.88;;;18.50;95.70;;;;;;4952539;29;20050;-70
2021/09/02 07:42:38;;;;;;;14.57;7.32;;;18.50;95.20;;;;;;4955762;29;20534;-69
2021/09/02 07:45:04;;;;;;;18.15;6.28;;;18.40;94.90;;;;;;4955367;29;20102;-70
2021/09/02 07:47:33;;;;;;;10.82;5.50;;;18.30;94.70;;;;;;4941567;28;20046;-70
2021/09/02 07:49:59;;;;;;;14.10;7.03;;;18.30;94.90;;;;;;4955096;28;20498;-70
2021/09/02 07:52:25;;;;;;;12.73;5.95;;;18.30;94.70;;;;;;4950516;28;20049;-69
2021/09/02 07:54:56;;;;;;;14.63;6.22;;;18.30;94.50;;;;;;4968921;28;20018;-70
2021/09/02 07:57:22;;;;;;;11.02;5.55;;;18.30;94.50;;;;;;4950365;28;20091;-70
2021/09/02 07:59:47;;;;;;;12.27;6.85;;;18.40;94.50;;;;;;4946997;29;20133;-70
2021/09/02 08:02:13;;;;;;;13.13;5.32;;;18.40;94.00;;;;;;4955240;29;20027;-71
2021/09/02 08:04:38;;;;;;;10.75;5.45;;;18.40;93.90;;;;;;4954343;28;20475;-71
2021/09/02 08:07:04;;;;;;;10.00;5.97;;;18.40;94.10;;;;;;4956186;28;20045;-70
2021/09/02 08:09:29;;;;;;;11.68;5.97;;;18.40;93.80;;;;;;4967770;28;20492;-69
2021/09/02 08:11:56;;;;;;;11.68;5.30;;;18.50;93.80;;;;;;4954532;28;20366;-70
2021/09/02 08:14:21;;;;;;;12.13;6.72;;;18.50;93.90;;;;;;4952012;28;20023;-70
2021/09/02 08:16:47;;;;;;;14.07;6.85;;;18.50;93.20;;;;;;4950668;28;20046;-70
2021/09/02 08:19:12;;;;;;;11.70;7.30;;;18.40;93.30;;;;;;4954080;28;20363;-70
2021/09/02 08:21:39;;;;;;;12.90;6.13;;;18.30;93.10;;;;;;4955052;28;20043;-70
2021/09/02 08:24:05;;;;;;;13.90;5.80;;;18.40;93.40;;;;;;4954733;29;20038;-70
2021/09/02 08:26:32;;;;;;;14.20;6.32;;;18.50;93.40;;;;;;4953267;28;20062;-70
2021/09/02 08:28:58;;;;;;;10.70;4.88;;;18.50;93.30;;;;;;4953189;28;20498;-70
2021/09/02 08:31:23;;;;;;;8.50;4.60;;;18.50;93.20;;;;;;4954316;28;20030;-70
2021/09/02 08:33:49;;;;;;;15.18;5.80;;;18.50;93.10;;;;;;4954816;28;20082;-69
2021/09/02 08:36:14;;;;;;;9.52;4.90;;;18.40;93.10;;;;;;4953990;28;20038;-70
2021/09/02 08:38:41;;;;;;;10.63;4.53;;;18.60;92.90;;;;;;4953876;28;20118;-70
2021/09/02 08:41:08;;;;;;;12.27;6.05;;;18.70;92.80;;;;;;4954708;29;20051;-70
2021/09/02 08:43:35;;;;;;;10.73;5.55;;;18.90;92.60;;;;;;4954778;28;20027;-70
2021/09/02 08:46:03;;;;;;;10.40;5.43;;;19.10;92.30;;;;;;4951881;28;20034;-70
2021/09/02 08:48:30;;;;;;;11.30;5.57;;;19.30;92.30;;;;;;4954538;28;20024;-70
2021/09/02 08:50:56;;;;;;;14.13;5.53;;;19.50;92.00;;;;;;4954735;29;20094;-70
2021/09/02 08:53:22;;;;;;;13.30;5.43;;;19.70;91.70;;;;;;4953121;28;20031;-70
2021/09/02 08:55:47;;;;;;;12.13;6.13;;;19.90;91.50;;;;;;4949604;28;20119;-70
2021/09/02 08:58:13;;;;;;;13.20;5.68;;;19.90;90.20;;;;;;4953597;28;20035;-70
2021/09/02 09:00:39;;;;;;;12.00;6.18;;;19.70;90.00;;;;;;4953405;28;20587;-69
2021/09/02 09:03:06;;;;;;;12.50;5.00;;;19.70;90.10;;;;;;4952711;28;20114;-70
2021/09/02 09:05:33;;;;;;;13.02;6.25;;;19.70;90.00;;;;;;4953449;28;20023;-70
2021/09/02 09:08:00;;;;;;;19.42;6.60;;;19.80;89.50;;;;;;4952986;29;20500;-70
2021/09/02 09:10:28;;;;;;;10.38;5.95;;;20.00;89.70;;;;;;4952642;28;20035;-70
2021/09/02 09:12:57;;;;;;;9.57;5.60;;;20.20;87.60;;;;;;4953220;28;20086;-70
2021/09/02 09:15:28;;;;;;;9.65;5.05;;;20.20;87.50;;;;;;4952551;28;20393;-70
2021/09/02 09:18:11;;;;;;;11.70;5.60;;;20.20;87.30;;;;;;4954194;29;20031;-70
2021/09/02 09:20:37;;;;;;;8.95;4.72;;;20.20;86.90;;;;;;4953362;28;20505;-70
2021/09/02 09:23:02;;;;;;;11.93;6.72;;;20.20;86.60;;;;;;4952848;28;20047;-70
2021/09/02 09:25:29;;;;;;;10.13;5.07;;;20.20;85.30;;;;;;4947892;28;20035;-70
2021/09/02 09:27:58;;;;;;;11.32;6.07;;;20.30;85.90;;;;;;4953873;28;20458;-70
2021/09/02 09:30:28;;;;;;;10.50;6.20;;;20.50;85.20;;;;;;4951507;28;20027;-70
2021/09/02 09:33:01;;;;;;;12.60;5.75;;;20.50;83.60;;;;;;4950210;28;20057;-70
2021/09/02 09:35:39;;;;;;;8.93;5.05;;;20.30;82.90;;;;;;4953398;29;20031;-70
2021/09/02 09:38:10;;;;;;;12.35;5.75;;;20.20;84.20;;;;;;4953167;29;20023;-70
2021/09/02 09:40:39;;;;;;;10.77;5.33;;;20.10;84.00;;;;;;4953182;28;20062;-70
2021/09/02 09:43:09;;;;;;;9.02;5.07;;;20.10;83.80;;;;;;4947557;28;20781;-70
2021/09/02 09:45:41;;;;;;;8.65;4.82;;;20.10;84.40;;;;;;4944578;29;20031;-70
2021/09/02 09:48:30;;;;;;;9.00;5.07;;;20.20;84.60;;;;;;4953308;29;20027;-70
2021/09/02 09:51:18;;;;;;;9.25;4.78;;;20.30;84.10;;;;;;4952737;28;20038;-70
2021/09/02 09:53:47;;;;;;;11.13;5.00;;;20.40;83.80;;;;;;4952942;28;20056;-70
2021/09/02 09:56:16;;;;;;;7.47;4.55;;;20.50;83.30;;;;;;4952490;28;20031;-70
2021/09/02 09:58:43;;;;;;;10.25;5.18;;;20.30;83.20;;;;;;4952029;28;20035;-70
2021/09/02 10:01:12;;;;;;;8.95;4.63;;;20.30;82.90;;;;;;4952963;28;20383;-70
2021/09/02 10:03:38;;;;;;;9.73;4.47;;;20.20;83.80;;;;;;4952722;28;20040;-70
2021/09/02 10:06:06;;;;;;;11.13;4.68;;;20.10;84.10;;;;;;4953168;29;20393;-69
2021/09/02 10:08:34;;;;;;;14.63;5.43;;;20.20;83.90;;;;;;4952643;28;20036;-70
2021/09/02 10:11:02;;;;;;;9.23;4.63;;;20.20;84.20;;;;;;4953453;29;20363;-69
2021/09/02 10:13:28;;;;;;;8.68;4.25;;;20.30;84.70;;;;;;4950479;28;20037;-70
2021/09/02 10:15:54;;;;;;;15.25;5.85;;;20.50;84.30;;;;;;4953682;28;20035;-69
2021/09/02 10:18:20;;;;;;;11.73;5.68;;;20.60;82.70;;;;;;4950256;28;20110;-69
2021/09/02 10:20:46;;;;;;;11.23;5.75;;;20.70;82.30;;;;;;4953519;28;20028;-70
2021/09/02 10:23:14;;;;;;;9.60;4.43;;;20.70;82.30;;;;;;4950700;28;20086;-69
2021/09/02 10:25:40;;;;;;;11.75;5.05;;;20.80;82.20;;;;;;4948465;28;20026;-70
2021/09/02 10:28:22;;;;;;;10.27;4.90;;;20.80;81.50;;;;;;4945600;28;20029;-70
2021/09/02 10:30:50;;;;;;;8.55;4.43;;;20.90;80.20;;;;;;4945779;28;20454;-69
2021/09/02 10:33:32;;;;;;;8.93;4.80;;;20.80;80.10;;;;;;4943715;28;20050;-69
2021/09/02 10:35:59;;;;;;;;;;;20.80;80.00;;;;;;4946917;28;20493;-70
2021/09/02 10:38:41;;;;;;;9.43;4.72;;;20.90;80.90;;;;;;4945550;28;20311;-70
2021/09/02 10:41:09;;;;;;;11.75;5.18;;;21.10;80.20;;;;;;4944967;28;20110;-70
2021/09/02 10:43:59;;;;;;;7.25;4.55;;;21.20;79.90;;;;;;4949391;28;20034;-70
2021/09/02 10:46:24;;;;;;;10.65;5.05;;;21.30;79.50;;;;;;4950686;28;20067;-71
2021/09/02 10:48:49;;;;;;;9.77;4.50;;;21.30;79.40;;;;;;4949371;28;20039;-70
2021/09/02 10:51:39;;;;;;;7.70;4.13;;;21.30;78.90;;;;;;4949154;28;20031;-70
2021/09/02 10:54:09;;;;;;;9.95;4.60;;;21.40;79.70;;;;;;4948812;28;20111;-70
2021/09/02 10:56:56;;;;;;;8.55;4.60;;;21.60;79.10;;;;;;4949066;28;20031;-71
2021/09/02 10:59:36;;;;;;;6.72;4.05;;;21.70;77.30;;;;;;4948364;28;20394;-70
2021/09/02 11:02:03;;;;;;;9.88;4.78;;;21.70;77.20;;;;;;4949100;28;20032;-70
2021/09/02 11:04:28;;;;;;;13.18;5.05;;;21.70;77.10;;;;;;4955716;28;20031;-70
2021/09/02 11:06:55;;;;;;;12.13;4.35;;;21.80;75.80;;;;;;4959694;28;20466;-71
2021/09/02 11:09:29;;;;;;;11.52;4.57;;;21.70;76.30;;;;;;4954891;28;20147;-70
2021/09/02 11:11:54;;;;;;;11.70;4.93;;;21.80;76.70;;;;;;4953082;28;20086;-71
2021/09/02 11:14:20;;;;;;;7.68;4.50;;;21.90;76.90;;;;;;4952278;28;20072;-70
2021/09/02 11:16:45;;;;;;;8.35;4.00;;;22.00;76.70;;;;;;4955749;28;20032;-70
2021/09/02 11:19:11;;;;;;;12.95;5.03;;;22.20;76.90;;;;;;4954374;28;20038;-71
2021/09/02 11:21:36;;;;;;;8.73;5.65;;;22.50;75.10;;;;;;4956010;29;20034;-71
2021/09/02 11:24:07;;;;;;;11.98;5.97;;;22.50;73.90;;;;;;4954360;28;20043;-70
2021/09/02 11:26:40;;;;;;;8.60;4.80;;;22.30;74.80;;;;;;4955151;28;20033;-71
2021/09/02 11:29:08;;;;;;;13.07;5.63;;;22.10;74.60;;;;;;4953327;28;20511;-70
2021/09/02 11:31:35;;;;;;;29.88;8.50;;;22.00;75.80;;;;;;4953308;28;20090;-71
2021/09/02 11:34:01;;;;;;;16.45;6.25;;;22.00;75.90;;;;;;4955493;28;20028;-70
2021/09/02 11:36:28;;;;;;;11.85;5.80;;;22.00;75.70;;;;;;4955660;29;20473;-71
2021/09/02 11:39:10;;;;;;;11.20;5.30;;;22.10;75.80;;;;;;4954519;28;20027;-70
2021/09/02 11:41:35;;;;;;;9.10;4.93;;;22.00;76.30;;;;;;4953533;28;20047;-71
2021/09/02 11:44:02;;;;;;;9.27;5.20;;;22.10;76.10;;;;;;4955527;29;20031;-70
2021/09/02 11:46:27;;;;;;;11.65;6.03;;;22.20;75.50;;;;;;4953513;28;20046;-71
2021/09/02 11:48:55;;;;;;;8.02;4.65;;;22.20;75.10;;;;;;4955668;28;20050;-71
2021/09/02 11:51:31;;;;;;;8.40;4.97;;;22.20;75.10;;;;;;4953574;28;20117;-71
2021/09/02 11:54:03;;;;;;;9.00;4.93;;;22.10;75.60;;;;;;4951738;28;20106;-70
2021/09/02 11:56:29;;;;;;;10.98;5.45;;;22.10;74.20;;;;;;4953054;28;20501;-71
2021/09/02 11:58:58;;;;;;;10.52;5.10;;;22.00;74.30;;;;;;4953749;28;20039;-71
2021/09/02 12:01:25;;;;;;;8.60;4.65;;;21.90;74.40;;;;;;4954005;28;20156;-70
2021/09/02 12:03:52;;;;;;;9.18;4.03;;;21.90;75.00;;;;;;4943702;28;20078;-70
2021/09/02 12:06:31;;;;;;;9.30;4.28;;;22.00;75.60;;;;;;4952606;28;20030;-70
2021/09/02 12:09:02;;;;;;;9.43;4.78;;;22.20;75.60;;;;;;4954524;28;20086;-71
2021/09/02 12:11:28;;;;;;;6.80;3.67;;;22.30;75.30;;;;;;4953506;28;20518;-71
2021/09/02 12:13:56;;;;;;;8.50;3.35;;;22.50;74.60;;;;;;4953444;28;20023;-71
2021/09/02 12:16:31;;;;;;;8.82;5.03;;;22.60;74.70;;;;;;4948323;28;20293;-71
2021/09/02 12:19:01;;;;;;;9.82;4.25;;;22.50;74.20;;;;;;4954372;28;20023;-71
2021/09/02 12:21:30;;;;;;;10.20;5.30;;;22.40;74.60;;;;;;4953314;28;20039;-70
2021/09/02 12:23:57;;;;;;;9.95;4.70;;;22.30;74.30;;;;;;4953857;28;20393;-70
2021/09/02 12:26:25;;;;;;;8.38;4.57;;;22.20;73.90;;;;;;4952799;28;20039;-70
2021/09/02 12:28:55;;;;;;;7.50;4.05;;;22.20;74.10;;;;;;4953985;28;20111;-71
2021/09/02 12:31:32;;;;;;;8.73;4.57;;;22.20;74.90;;;;;;4953390;28;20474;-71
2021/09/02 12:33:58;;;;;;;9.60;4.72;;;22.30;74.00;;;;;;4953484;28;20039;-71